Time;durP1;ratioP1;P1;durP2;ratioP2;P2;SDS_P1;SDS_P2;PMS_P1;PMS_P2;Temp;Humidity;BMP_temperature;BMP_pressure;BME280_temperature;BME280_humidity;BME280_pressure;Samples;Min_cycle;Max_cycle;Signal;HPM_P1;HPM_P2
2022/05/28 00:00:22;;;;;;;26.90;15.10;;;8.80;99.90;;;;;;10570803;28;20359;-81
2022/05/28 00:05:23;;;;;;;28.03;16.70;;;8.80;99.90;;;;;;10571217;28;20036;-82
2022/05/28 00:10:24;;;;;;;27.30;16.23;;;8.70;99.90;;;;;;10598128;27;20551;-81
2022/05/28 00:15:25;;;;;;;25.80;15.20;;;8.70;99.90;;;;;;10555669;28;20031;-81
2022/05/28 00:20:26;;;;;;;33.77;17.03;;;8.60;99.90;;;;;;10571140;28;20035;-81
2022/05/28 00:25:27;;;;;;;35.77;18.97;;;8.50;99.90;;;;;;10570574;28;20556;-82
2022/05/28 00:30:27;;;;;;;30.50;16.80;;;8.30;99.90;;;;;;10569945;28;20031;-81
2022/05/28 00:35:28;;;;;;;39.20;19.87;;;8.10;99.90;;;;;;10569824;28;20115;-82
2022/05/28 00:40:28;;;;;;;43.50;20.97;;;8.00;99.90;;;;;;10570960;28;20036;-81
2022/05/28 00:45:32;;;;;;;44.87;19.80;;;8.00;99.90;;;;;;10569508;28;20023;-82
2022/05/28 00:50:37;;;;;;;53.57;21.13;;;7.90;99.90;;;;;;10569361;28;20503;-82
2022/05/28 00:55:38;;;;;;;47.70;23.25;;;7.70;99.90;;;;;;10567722;28;20031;-81
2022/05/28 01:00:39;;;;;;;56.73;26.70;;;7.60;99.90;;;;;;10567775;28;20036;-82
2022/05/28 01:05:59;;;;;;;52.30;25.33;;;7.80;99.90;;;;;;10567391;28;20050;-82
2022/05/28 01:11:27;;;;;;;47.30;24.90;;;8.00;99.90;;;;;;10565541;28;20027;-81
2022/05/28 01:16:36;;;;;;;45.63;24.53;;;8.10;99.90;;;;;;10551047;28;20027;-82
2022/05/28 01:22:14;;;;;;;53.50;26.60;;;8.20;99.90;;;;;;10569200;28;20039;-82
2022/05/28 01:27:18;;;;;;;54.07;28.17;;;8.30;99.90;;;;;;10573304;28;20025;-82
2022/05/28 01:32:20;;;;;;;44.60;25.43;;;8.50;99.90;;;;;;10576295;28;20613;-81
2022/05/28 01:37:21;;;;;;;47.27;24.57;;;8.60;99.90;;;;;;10577397;28;20580;-82
2022/05/28 01:42:23;;;;;;;46.20;23.30;;;8.60;99.90;;;;;;10577123;28;20034;-82
2022/05/28 01:47:25;;;;;;;46.27;25.17;;;8.70;99.90;;;;;;10575103;28;20019;-82
2022/05/28 01:52:27;;;;;;;43.10;24.30;;;8.80;99.90;;;;;;10577390;28;20104;-84
2022/05/28 01:57:29;;;;;;;48.37;24.80;;;8.90;99.90;;;;;;10575771;28;20030;-83
2022/05/28 02:02:29;;;;;;;44.17;23.63;;;8.90;99.90;;;;;;10575057;28;20081;-83
2022/05/28 02:07:30;;;;;;;42.23;21.63;;;8.90;99.90;;;;;;10575871;28;20157;-82
2022/05/28 02:12:38;;;;;;;31.90;19.97;;;8.80;99.90;;;;;;10575863;28;20023;-84
2022/05/28 02:17:44;;;;;;;43.43;20.23;;;8.70;99.90;;;;;;10575033;28;20080;-81
2022/05/28 02:23:11;;;;;;;48.63;21.87;;;8.60;99.90;;;;;;10575203;28;20043;-81
2022/05/28 02:28:14;;;;;;;41.83;21.67;;;8.50;99.90;;;;;;10575149;28;20047;-81
2022/05/28 02:33:15;;;;;;;37.00;19.53;;;8.50;99.90;;;;;;10573999;28;20420;-81
2022/05/28 02:38:17;;;;;;;46.73;22.73;;;8.30;99.90;;;;;;10574220;28;20359;-81
2022/05/28 02:43:17;;;;;;;43.00;20.30;;;8.20;99.90;;;;;;10575055;28;20028;-81
2022/05/28 02:48:18;;;;;;;70.47;24.27;;;8.10;99.90;;;;;;10573144;28;20034;-81
2022/05/28 02:53:19;;;;;;;46.57;24.30;;;7.90;99.90;;;;;;10573626;28;20038;-82
2022/05/28 02:58:19;;;;;;;58.40;29.03;;;7.90;99.90;;;;;;10572301;28;20039;-81
2022/05/28 03:03:20;;;;;;;51.27;27.83;;;8.10;99.90;;;;;;10578088;27;20099;-81
2022/05/28 03:08:21;;;;;;;51.13;28.00;;;8.20;99.90;;;;;;10575168;27;20039;-81
2022/05/28 03:13:21;;;;;;;58.20;29.03;;;8.40;99.90;;;;;;10573082;28;20159;-81
2022/05/28 03:18:22;;;;;;;46.60;25.67;;;8.50;99.90;;;;;;10572453;28;20054;-81
2022/05/28 03:23:23;;;;;;;57.77;30.10;;;8.70;99.90;;;;;;10572648;28;20035;-80
2022/05/28 03:28:23;;;;;;;44.73;26.30;;;8.80;99.90;;;;;;10573360;28;20035;-81
2022/05/28 03:33:24;;;;;;;45.63;25.93;;;8.80;99.90;;;;;;10559267;28;20027;-81
2022/05/28 03:38:25;;;;;;;46.97;25.73;;;8.90;99.90;;;;;;10572307;28;20055;-82
2022/05/28 03:43:26;;;;;;;55.03;28.97;;;8.80;99.90;;;;;;10572146;28;20043;-81
2022/05/28 03:48:27;;;;;;;60.23;31.43;;;8.70;99.90;;;;;;10569907;28;20038;-82
2022/05/28 03:53:29;;;;;;;60.07;34.23;;;8.70;99.90;;;;;;10572247;28;20587;-82
2022/05/28 03:58:29;;;;;;;67.67;34.13;;;8.60;99.90;;;;;;10571427;28;20169;-82
2022/05/28 04:03:30;;;;;;;64.90;35.17;;;8.60;99.90;;;;;;10571176;28;20053;-82
2022/05/28 04:08:31;;;;;;;54.63;33.73;;;8.50;99.90;;;;;;10571344;28;20475;-82
2022/05/28 04:13:32;;;;;;;66.13;36.57;;;8.50;99.90;;;;;;10570287;28;20059;-84
2022/05/28 04:18:33;;;;;;;68.43;38.33;;;8.50;99.90;;;;;;10570062;28;20103;-82
2022/05/28 04:23:34;;;;;;;70.20;38.13;;;8.50;99.90;;;;;;10568411;28;20084;-83
2022/05/28 04:28:35;;;;;;;62.90;36.23;;;8.60;99.90;;;;;;10558185;28;20073;-82
2022/05/28 04:33:36;;;;;;;62.27;34.63;;;8.70;99.90;;;;;;10569144;28;20060;-82
2022/05/28 04:38:36;;;;;;;55.10;30.30;;;8.90;99.90;;;;;;10559667;28;20028;-82
2022/05/28 04:43:37;;;;;;;52.53;28.43;;;9.00;99.90;;;;;;10570084;28;20421;-84
2022/05/28 04:48:38;;;;;;;41.17;22.23;;;9.10;99.90;;;;;;10570503;28;20020;-80
2022/05/28 04:53:39;;;;;;;37.20;22.43;;;9.30;99.90;;;;;;10569611;28;20031;-81
2022/05/28 04:58:41;;;;;;;30.97;15.40;;;9.40;99.90;;;;;;10565708;28;20026;-84
2022/05/28 05:03:42;;;;;;;22.13;11.98;;;9.60;99.90;;;;;;10576898;28;20039;-81
2022/05/28 05:08:43;;;;;;;22.50;9.73;;;9.70;99.90;;;;;;10578843;28;20424;-82
2022/05/28 05:13:44;;;;;;;17.55;10.05;;;9.60;99.90;;;;;;10577653;28;20058;-80
2022/05/28 05:18:45;;;;;;;24.02;10.48;;;9.60;99.90;;;;;;10577870;28;20028;-80
2022/05/28 05:23:46;;;;;;;18.52;8.57;;;9.70;99.90;;;;;;10577355;28;20386;-81
2022/05/28 05:28:48;;;;;;;15.10;7.68;;;9.80;99.90;;;;;;10577953;28;20023;-81
2022/05/28 05:33:48;;;;;;;17.38;6.25;;;9.90;99.90;;;;;;10577248;28;20042;-81
2022/05/28 05:38:49;;;;;;;10.25;4.70;;;9.90;99.90;;;;;;10577423;28;20343;-80
2022/05/28 05:43:50;;;;;;;13.23;4.13;;;10.00;99.90;;;;;;10576954;28;20040;-79
2022/05/28 05:48:50;;;;;;;17.08;4.85;;;10.00;99.90;;;;;;10577170;28;20035;-80
2022/05/28 05:53:51;;;;;;;12.05;4.50;;;10.00;99.90;;;;;;10511876;22;20095;-80
2022/05/28 05:58:52;;;;;;;8.07;2.45;;;10.20;99.90;;;;;;10480112;22;20061;-81
2022/05/28 06:03:52;;;;;;;8.18;2.83;;;10.30;99.90;;;;;;10450972;28;20036;-80
2022/05/28 06:08:54;;;;;;;10.52;3.22;;;10.30;99.90;;;;;;10456345;28;20741;-82
2022/05/28 06:13:55;;;;;;;13.15;4.38;;;10.40;99.90;;;;;;10432154;28;20110;-81
2022/05/28 06:18:56;;;;;;;9.50;2.90;;;10.60;99.90;;;;;;10458259;28;20542;-80
2022/05/28 06:23:58;;;;;;;11.52;2.78;;;10.70;99.90;;;;;;10451268;28;20106;-83
2022/05/28 06:28:59;;;;;;;11.45;3.22;;;10.80;99.90;;;;;;10475611;22;20058;-81
2022/05/28 06:34:00;;;;;;;9.95;3.28;;;11.00;99.90;;;;;;10597631;27;20037;-85
2022/05/28 06:39:00;;;;;;;14.60;3.78;;;11.00;99.90;;;;;;10570864;27;20079;-82
2022/05/28 06:44:01;;;;;;;6.68;2.88;;;10.80;99.90;;;;;;10596062;27;20106;-82
2022/05/28 06:49:02;;;;;;;10.35;3.47;;;11.00;99.90;;;;;;10574491;28;21223;-82
2022/05/28 06:54:03;;;;;;;10.10;3.83;;;11.20;99.90;;;;;;10556534;28;20022;-83
2022/05/28 06:59:03;;;;;;;13.50;3.30;;;11.10;99.90;;;;;;10564090;28;20028;-83
2022/05/28 07:04:04;;;;;;;10.15;2.63;;;11.10;99.90;;;;;;10570044;28;20027;-86
2022/05/28 07:09:05;;;;;;;4.85;2.33;;;11.60;99.90;;;;;;10567858;28;20028;-83
2022/05/28 07:14:06;;;;;;;8.55;2.88;;;12.70;99.90;;;;;;10563128;28;20074;-84
2022/05/28 07:19:07;;;;;;;8.43;2.10;;;13.00;99.90;;;;;;10566653;28;20537;-85
2022/05/28 07:24:07;;;;;;;6.85;1.73;;;12.90;99.90;;;;;;10572878;28;20482;-84
2022/05/28 07:29:08;;;;;;;4.40;1.77;;;12.80;99.90;;;;;;10568028;28;20052;-83
2022/05/28 07:34:09;;;;;;;7.85;2.42;;;13.10;99.90;;;;;;10553030;28;20026;-83
2022/05/28 07:39:10;;;;;;;7.05;1.90;;;12.60;99.90;;;;;;10562329;28;20604;-86
2022/05/28 07:44:10;;;;;;;6.22;1.50;;;12.00;99.90;;;;;;10526510;28;20035;-82
2022/05/28 07:49:11;;;;;;;10.20;1.95;;;11.70;99.90;;;;;;10557197;27;20023;-83
2022/05/28 07:54:13;;;;;;;5.13;2.00;;;11.90;99.90;;;;;;10551912;27;20028;-83
2022/05/28 07:59:13;;;;;;;5.65;1.33;;;12.60;99.90;;;;;;10562805;28;20020;-82
2022/05/28 08:04:14;;;;;;;4.68;1.23;;;12.90;99.90;;;;;;10559176;28;20036;-86
2022/05/28 08:09:16;;;;;;;3.78;1.10;;;13.40;99.90;;;;;;10561045;28;20042;-83
2022/05/28 08:14:17;;;;;;;3.08;1.23;;;14.10;99.90;;;;;;10540440;28;20024;-83
2022/05/28 08:19:18;;;;;;;4.15;1.40;;;14.00;99.90;;;;;;10547161;28;20024;-83
2022/05/28 08:24:18;;;;;;;5.80;1.45;;;13.80;99.90;;;;;;10570538;28;20040;-82
2022/05/28 08:29:22;;;;;;;7.25;2.30;;;13.60;99.90;;;;;;10565198;28;20042;-83
2022/05/28 08:34:22;;;;;;;5.20;1.55;;;13.80;99.90;;;;;;10560387;28;20599;-84
2022/05/28 08:39:23;;;;;;;3.53;1.40;;;13.80;99.90;;;;;;10562942;28;20038;-82
2022/05/28 08:44:31;;;;;;;6.32;1.77;;;13.30;99.90;;;;;;10574193;27;20105;-82
2022/05/28 08:49:34;;;;;;;4.82;1.63;;;13.60;99.90;;;;;;10574006;28;20044;-82
2022/05/28 08:54:57;;;;;;;3.67;1.23;;;14.00;99.90;;;;;;10537186;28;20020;-85
2022/05/28 09:00:07;;;;;;;3.70;1.33;;;14.50;99.90;;;;;;10575501;28;20020;-82
2022/05/28 09:05:21;;;;;;;5.30;1.52;;;14.90;99.90;;;;;;10539504;28;20183;-85
2022/05/28 09:10:22;;;;;;;8.05;2.90;;;14.40;99.90;;;;;;10555728;28;20028;-85
2022/05/28 09:15:26;;;;;;;10.07;3.60;;;13.90;99.90;;;;;;10569060;28;20032;-86
2022/05/28 09:20:38;;;;;;;4.78;1.50;;;13.70;99.90;;;;;;10559332;28;20388;-85
2022/05/28 09:25:43;;;;;;;8.43;2.65;;;13.90;99.90;;;;;;10557367;28;20509;-88
2022/05/28 09:30:43;;;;;;;6.88;2.15;;;15.00;99.90;;;;;;10571841;28;20515;-87
2022/05/28 09:36:21;;;;;;;4.22;1.40;;;15.20;99.90;;;;;;10571757;28;20083;-85
2022/05/28 09:41:42;;;;;;;5.05;1.90;;;14.80;99.90;;;;;;10522281;28;20399;-84
2022/05/28 09:46:44;;;;;;;7.03;3.50;;;14.70;99.90;;;;;;10565466;27;20018;-87
2022/05/28 09:51:58;;;;;;;6.93;2.42;;;14.70;99.90;;;;;;10561100;27;20099;-88
2022/05/28 09:57:20;;;;;;;3.45;1.35;;;15.60;99.90;;;;;;10555784;27;20028;-91
2022/05/28 10:02:40;;;;;;;4.03;1.33;;;16.00;99.90;;;;;;10580908;27;20046;-85
2022/05/28 10:07:46;;;;;;;5.95;1.90;;;15.90;99.90;;;;;;10572752;27;20107;-88
2022/05/28 10:12:47;;;;;;;8.15;1.90;;;15.80;99.90;;;;;;10561425;27;20015;-86
2022/05/28 10:18:00;;;;;;;9.10;2.38;;;15.80;99.90;;;;;;10542990;28;20126;-86
2022/05/28 10:23:22;;;;;;;2.95;1.30;;;15.20;99.90;;;;;;10576216;27;20042;-85
2022/05/28 10:28:33;;;;;;;3.45;1.40;;;14.50;99.90;;;;;;10563829;27;20068;-86
2022/05/28 10:33:44;;;;;;;4.00;1.30;;;13.80;99.90;;;;;;10561986;28;20039;-86
2022/05/28 10:38:45;;;;;;;1.85;1.00;;;13.50;99.90;;;;;;10545549;28;20024;-86
2022/05/28 10:43:46;;;;;;;2.95;1.38;;;13.60;99.90;;;;;;10559851;28;20115;-83
2022/05/28 10:49:05;;;;;;;5.15;1.70;;;13.40;99.90;;;;;;10568210;28;20023;-83
2022/05/28 10:54:22;;;;;;;3.88;1.40;;;13.40;99.90;;;;;;10558289;28;20467;-82
2022/05/28 10:59:43;;;;;;;3.25;1.20;;;13.30;99.90;;;;;;10572198;28;20032;-82
2022/05/28 11:04:50;;;;;;;6.85;2.28;;;13.70;99.90;;;;;;10556684;28;20062;-83
2022/05/28 11:10:10;;;;;;;8.00;1.77;;;13.50;99.90;;;;;;10559767;28;20763;-84
2022/05/28 11:15:28;;;;;;;2.92;0.77;;;13.50;99.90;;;;;;10567980;28;20019;-87
2022/05/28 11:21:07;;;;;;;2.20;1.17;;;14.40;99.90;;;;;;10561445;28;20039;-84
2022/05/28 11:26:17;;;;;;;2.50;1.45;;;15.20;96.10;;;;;;10549577;28;20039;-87
2022/05/28 11:31:41;;;;;;;4.85;0.93;;;15.70;99.90;;;;;;10560487;28;20048;-83
2022/05/28 11:36:48;;;;;;;2.10;1.02;;;16.00;96.80;;;;;;10562756;28;20425;-83
2022/05/28 11:41:56;;;;;;;2.38;1.40;;;16.20;88.30;;;;;;10567284;28;20035;-89
2022/05/28 11:47:26;;;;;;;1.98;1.40;;;16.60;87.90;;;;;;10563464;28;20015;-85
2022/05/28 11:52:47;;;;;;;2.55;0.90;;;16.90;91.30;;;;;;10558078;28;20043;-82
2022/05/28 11:58:05;;;;;;;5.00;3.17;;;17.10;78.60;;;;;;10559764;28;20273;-87
2022/05/28 12:03:23;;;;;;;6.78;1.27;;;16.70;80.50;;;;;;10564943;28;20040;-83
2022/05/28 12:08:39;;;;;;;4.10;0.75;;;16.70;77.60;;;;;;10566514;28;20657;-84
2022/05/28 12:13:40;;;;;;;1.45;0.77;;;16.70;70.60;;;;;;10567086;28;20417;-87
2022/05/28 12:18:42;;;;;;;4.72;2.17;;;16.40;73.10;;;;;;10556274;28;20089;-89
2022/05/28 12:23:44;;;;;;;1.67;0.95;;;16.50;73.50;;;;;;10566500;28;20039;-83
2022/05/28 12:28:51;;;;;;;2.70;1.13;;;16.10;72.70;;;;;;10566289;28;20040;-84
2022/05/28 12:33:55;;;;;;;2.90;1.55;;;15.50;74.20;;;;;;10553348;28;20024;-83
2022/05/28 12:39:30;;;;;;;9.57;1.77;;;15.10;72.10;;;;;;10552048;28;20055;-83
2022/05/28 12:44:33;;;;;;;7.95;1.50;;;14.50;72.30;;;;;;10551320;28;20723;-80
2022/05/28 12:50:02;;;;;;;13.27;4.32;;;12.50;88.40;;;;;;10565272;28;20032;-82
2022/05/28 12:55:28;;;;;;;9.13;3.53;;;10.20;99.90;;;;;;10470467;28;20042;-82
2022/05/28 13:00:36;;;;;;;3.95;1.90;;;9.40;99.90;;;;;;10546103;28;20113;-84
2022/05/28 13:33:44;;;;;;;3.40;2.20;;;12.30;99.90;;;;;;10645265;27;20349;-83
2022/05/28 13:38:49;;;;;;;5.90;3.08;;;13.60;99.90;;;;;;10627435;27;20043;-83
2022/05/28 13:44:04;;;;;;;3.65;2.10;;;13.70;99.90;;;;;;10660020;27;20055;-87
2022/05/28 13:49:08;;;;;;;10.50;3.30;;;13.90;99.90;;;;;;10643136;27;20023;-82
2022/05/28 13:54:11;;;;;;;3.88;2.33;;;14.00;99.90;;;;;;10633326;27;20439;-88
2022/05/28 13:59:13;;;;;;;3.08;1.50;;;14.10;99.90;;;;;;10646080;27;20027;-86
2022/05/28 14:04:16;;;;;;;4.28;2.15;;;14.20;99.90;;;;;;10630023;27;20115;-84
2022/05/28 14:09:18;;;;;;;5.03;2.15;;;14.40;99.90;;;;;;10649832;27;20026;-85
2022/05/28 14:14:26;;;;;;;2.53;1.67;;;14.60;99.90;;;;;;10640208;27;20031;-86
2022/05/28 14:19:47;;;;;;;6.00;1.77;;;14.60;99.90;;;;;;10641131;27;20050;-82
2022/05/28 14:24:51;;;;;;;6.95;2.40;;;14.30;99.90;;;;;;10629580;27;20067;-82
2022/05/28 14:29:52;;;;;;;3.92;2.00;;;14.30;99.90;;;;;;10657403;27;20521;-82
2022/05/28 14:34:54;;;;;;;3.13;1.48;;;14.40;99.90;;;;;;10604919;27;20487;-86
2022/05/28 14:39:56;;;;;;;8.00;2.97;;;14.30;99.90;;;;;;10619226;27;20042;-82
2022/05/28 14:44:59;;;;;;;4.32;1.50;;;14.40;99.90;;;;;;10613567;27;20027;-83
2022/05/28 14:50:05;;;;;;;7.45;2.75;;;14.40;99.90;;;;;;10619336;27;20030;-82
2022/05/28 14:55:09;;;;;;;5.97;1.50;;;14.30;99.90;;;;;;10618613;27;20027;-83
2022/05/28 15:00:13;;;;;;;3.83;1.92;;;14.00;99.90;;;;;;10633377;27;20028;-82
2022/05/28 15:05:27;;;;;;;4.00;1.73;;;13.80;99.90;;;;;;10616129;27;20511;-82
2022/05/28 15:10:41;;;;;;;4.28;1.58;;;13.70;99.90;;;;;;10618295;27;20029;-81
2022/05/28 15:15:42;;;;;;;4.70;1.88;;;13.90;99.90;;;;;;10604105;27;20031;-83
2022/05/28 15:20:44;;;;;;;3.55;1.60;;;13.60;99.90;;;;;;10614208;27;20543;-83
2022/05/28 15:25:44;;;;;;;7.82;3.42;;;13.40;99.90;;;;;;10618224;27;20115;-84
2022/05/28 15:30:45;;;;;;;6.05;2.97;;;13.30;99.90;;;;;;10618995;27;20375;-84
2022/05/28 15:41:10;;;;;;;4.38;1.83;;;13.70;99.90;;;;;;10618796;27;20644;-83
2022/05/28 15:46:10;;;;;;;2.50;1.75;;;13.70;99.90;;;;;;10612335;27;20019;-83
2022/05/28 15:51:13;;;;;;;9.73;2.13;;;13.50;99.90;;;;;;10617139;27;20439;-85
2022/05/28 15:56:14;;;;;;;3.85;1.30;;;13.60;99.90;;;;;;10626389;27;20035;-84
2022/05/28 16:01:21;;;;;;;2.30;1.15;;;13.60;99.90;;;;;;10606752;27;20059;-86
2022/05/28 16:06:24;;;;;;;13.30;5.50;;;13.60;99.90;;;;;;10611313;27;20023;-82
2022/05/28 16:11:33;;;;;;;2.67;1.75;;;13.60;99.90;;;;;;10614503;27;20027;-82
2022/05/28 16:16:34;;;;;;;6.35;3.00;;;13.50;99.90;;;;;;10625789;27;20061;-87
2022/05/28 16:21:35;;;;;;;8.10;2.60;;;13.50;99.90;;;;;;10610542;27;20038;-85
2022/05/28 16:26:37;;;;;;;6.90;2.83;;;13.50;99.90;;;;;;10614772;27;20057;-85
2022/05/28 16:31:39;;;;;;;4.20;1.80;;;13.20;99.90;;;;;;10605745;27;20059;-84
2022/05/28 16:36:41;;;;;;;4.85;2.45;;;13.20;99.90;;;;;;10613668;27;20038;-83
2022/05/28 16:41:43;;;;;;;5.93;1.40;;;13.30;99.90;;;;;;10625293;22;20553;-86
2022/05/28 16:46:44;;;;;;;3.92;1.70;;;13.40;99.90;;;;;;10551348;28;20090;-83
2022/05/28 16:51:45;;;;;;;4.32;2.20;;;13.30;99.90;;;;;;10571467;27;20019;-83
2022/05/28 16:56:45;;;;;;;3.42;2.05;;;13.20;99.90;;;;;;10568498;28;20024;-86
2022/05/28 17:01:46;;;;;;;4.50;2.35;;;13.10;99.90;;;;;;10552218;28;20052;-88
2022/05/28 17:06:47;;;;;;;6.00;2.70;;;12.90;99.90;;;;;;10548276;28;20597;-82
2022/05/28 17:11:50;;;;;;;6.05;2.90;;;12.80;99.90;;;;;;10558017;22;20055;-82
2022/05/28 17:16:52;;;;;;;9.88;2.22;;;12.80;99.90;;;;;;10485957;28;20056;-83
2022/05/28 17:21:52;;;;;;;6.05;3.00;;;12.70;99.90;;;;;;10486603;28;20028;-83
2022/05/28 17:26:59;;;;;;;10.23;2.90;;;12.60;99.90;;;;;;10483287;28;20032;-84
2022/05/28 17:32:06;;;;;;;3.97;1.88;;;12.40;99.90;;;;;;10485993;28;20033;-82
2022/05/28 17:37:11;;;;;;;3.17;2.00;;;12.10;99.90;;;;;;10486759;28;20032;-83
2022/05/28 17:42:12;;;;;;;3.93;2.27;;;12.10;99.90;;;;;;10475570;28;20471;-83
2022/05/28 17:47:15;;;;;;;5.47;1.55;;;12.00;99.90;;;;;;10482316;28;20078;-81
2022/05/28 17:52:17;;;;;;;2.75;1.73;;;11.90;99.90;;;;;;10483809;28;20025;-81
2022/05/28 17:57:18;;;;;;;2.90;1.77;;;11.80;99.90;;;;;;10484548;28;20025;-82
2022/05/28 18:02:22;;;;;;;2.35;1.50;;;11.60;99.90;;;;;;10474371;28;20036;-83
2022/05/28 18:07:24;;;;;;;5.55;2.28;;;11.60;99.90;;;;;;10475562;28;20028;-82
2022/05/28 18:12:25;;;;;;;12.60;3.53;;;11.50;99.90;;;;;;10491778;28;20064;-82
2022/05/28 18:17:35;;;;;;;10.30;4.10;;;11.40;99.90;;;;;;10492678;28;20652;-86
2022/05/28 18:22:38;;;;;;;5.30;2.28;;;11.30;99.90;;;;;;10488527;28;20415;-82
2022/05/28 18:27:41;;;;;;;14.90;4.63;;;11.20;99.90;;;;;;10487752;28;20146;-84
2022/05/28 18:32:42;;;;;;;19.17;9.75;;;11.10;99.90;;;;;;10490899;28;20025;-82
2022/05/28 18:37:46;;;;;;;38.53;22.70;;;11.00;99.90;;;;;;10492824;28;20059;-83
2022/05/28 18:42:47;;;;;;;13.55;5.53;;;10.60;99.90;;;;;;10486989;28;20071;-82
2022/05/28 18:47:48;;;;;;;6.45;3.40;;;10.30;99.90;;;;;;10482642;28;20106;-86
2022/05/28 18:52:49;;;;;;;6.15;2.83;;;10.00;99.90;;;;;;10489880;28;20035;-86
2022/05/28 18:57:50;;;;;;;8.77;3.35;;;9.70;99.90;;;;;;10474814;28;20032;-82
2022/05/28 19:02:50;;;;;;;11.73;6.40;;;9.50;99.90;;;;;;10491657;28;20149;-83
2022/05/28 19:07:51;;;;;;;18.30;10.63;;;9.30;99.90;;;;;;10478162;28;20078;-82
2022/05/28 19:12:52;;;;;;;14.77;8.47;;;9.10;99.90;;;;;;10490186;28;20045;-82
2022/05/28 19:17:54;;;;;;;12.93;6.87;;;9.00;99.90;;;;;;10490317;28;20107;-82
2022/05/28 19:22:54;;;;;;;17.00;9.07;;;8.90;99.90;;;;;;10477871;28;20150;-81
2022/05/28 19:27:56;;;;;;;18.37;10.73;;;8.70;99.90;;;;;;10486825;28;20028;-82
2022/05/28 19:32:59;;;;;;;20.53;11.50;;;8.80;99.90;;;;;;10488335;28;20032;-81
2022/05/28 19:38:00;;;;;;;40.10;27.70;;;8.90;99.90;;;;;;10489061;28;20527;-81
2022/05/28 19:43:04;;;;;;;50.97;34.77;;;8.90;99.90;;;;;;10478102;28;20115;-82
2022/05/28 19:48:08;;;;;;;33.43;20.40;;;9.00;99.90;;;;;;10470728;28;20035;-82
2022/05/28 19:53:09;;;;;;;41.10;26.33;;;9.10;99.90;;;;;;10485886;28;20099;-82
2022/05/28 19:58:10;;;;;;;50.07;29.93;;;9.00;99.90;;;;;;10478600;28;20066;-82
2022/05/28 20:03:12;;;;;;;40.53;25.13;;;9.10;99.90;;;;;;10477953;28;20040;-82
2022/05/28 20:08:13;;;;;;;32.33;20.33;;;9.00;99.90;;;;;;10480604;28;20082;-82
2022/05/28 20:13:15;;;;;;;26.80;15.90;;;8.90;99.90;;;;;;10483684;28;20112;-82
2022/05/28 20:18:16;;;;;;;31.00;15.83;;;8.80;99.90;;;;;;10485973;28;20032;-81
2022/05/28 20:23:34;;;;;;;34.33;18.90;;;8.60;99.90;;;;;;10473037;28;20498;-82
2022/05/28 20:28:35;;;;;;;35.33;18.73;;;8.60;99.90;;;;;;10486365;28;20094;-82
2022/05/28 20:33:38;;;;;;;23.07;12.53;;;8.60;99.90;;;;;;10485953;28;20036;-82
2022/05/28 20:38:39;;;;;;;24.53;12.47;;;8.50;99.90;;;;;;10486687;28;20025;-83
2022/05/28 20:43:40;;;;;;;27.80;15.63;;;8.40;99.90;;;;;;10474917;28;20218;-82
2022/05/28 20:48:45;;;;;;;27.27;16.13;;;8.40;99.90;;;;;;10478497;28;20036;-82
2022/05/28 20:53:48;;;;;;;28.77;16.27;;;8.20;99.90;;;;;;10487106;28;20116;-82
2022/05/28 20:58:49;;;;;;;35.10;19.30;;;8.20;99.90;;;;;;10486898;28;20062;-82
2022/05/28 21:03:51;;;;;;;32.67;18.13;;;8.10;99.90;;;;;;10484028;28;20502;-83
2022/05/28 21:08:52;;;;;;;33.07;17.83;;;7.90;99.90;;;;;;10487525;28;20052;-82
2022/05/28 21:13:52;;;;;;;30.40;16.63;;;7.80;99.90;;;;;;10483037;28;20063;-83
2022/05/28 21:18:55;;;;;;;27.67;15.73;;;7.70;99.90;;;;;;10472718;28;20506;-82
2022/05/28 21:23:57;;;;;;;28.50;15.77;;;7.70;99.90;;;;;;10486619;28;20067;-82
2022/05/28 21:34:19;;;;;;;22.03;12.23;;;7.80;99.90;;;;;;10471965;28;20036;-82
2022/05/28 21:39:19;;;;;;;19.77;11.70;;;7.90;99.90;;;;;;10486753;28;20028;-82
2022/05/28 21:44:20;;;;;;;23.70;12.27;;;8.20;99.90;;;;;;10489751;28;20066;-82
2022/05/28 21:49:22;;;;;;;22.80;13.37;;;8.50;99.90;;;;;;10473029;28;20025;-82
2022/05/28 21:54:34;;;;;;;23.97;13.17;;;8.70;99.90;;;;;;10490053;28;20498;-82
2022/05/28 21:59:36;;;;;;;25.10;13.53;;;8.80;99.90;;;;;;10492772;28;20032;-83
2022/05/28 22:04:43;;;;;;;20.57;11.10;;;9.00;99.90;;;;;;10461074;28;20040;-82
2022/05/28 22:09:44;;;;;;;19.10;10.53;;;9.10;99.90;;;;;;10495006;28;20024;-83
2022/05/28 22:14:45;;;;;;;18.63;11.30;;;9.10;99.90;;;;;;10491859;28;20055;-82
2022/05/28 22:19:47;;;;;;;23.27;12.97;;;9.00;99.90;;;;;;10493272;28;20039;-82
2022/05/28 22:24:48;;;;;;;23.63;13.47;;;9.00;99.90;;;;;;10491172;28;20439;-82
2022/05/28 22:29:48;;;;;;;24.17;12.50;;;8.90;99.90;;;;;;10492804;28;20115;-82
2022/05/28 22:34:50;;;;;;;20.33;11.87;;;8.70;99.90;;;;;;10510486;22;20063;-82
2022/05/28 22:39:50;;;;;;;23.23;13.47;;;8.60;99.90;;;;;;10489193;28;20036;-82
2022/05/28 22:45:09;;;;;;;22.53;12.80;;;8.30;99.90;;;;;;10474862;28;20388;-82
2022/05/28 22:50:20;;;;;;;23.10;12.47;;;8.20;99.90;;;;;;10500222;28;20028;-82
2022/05/28 22:55:22;;;;;;;20.63;10.77;;;8.20;99.90;;;;;;10469444;28;20024;-81
2022/05/28 23:00:24;;;;;;;15.50;7.63;;;8.40;99.90;;;;;;10493241;28;20495;-82
2022/05/28 23:05:27;;;;;;;14.50;7.23;;;8.50;99.90;;;;;;10478660;28;20040;-82
2022/05/28 23:10:28;;;;;;;8.73;5.67;;;8.60;99.90;;;;;;10492146;28;20028;-82
2022/05/28 23:15:29;;;;;;;11.40;4.87;;;8.80;99.90;;;;;;10490239;28;20388;-83
2022/05/28 23:20:34;;;;;;;12.57;5.27;;;8.80;99.90;;;;;;10474040;28;20039;-83
2022/05/28 23:25:50;;;;;;;11.03;5.30;;;8.80;99.90;;;;;;10491053;28;20032;-82
2022/05/28 23:30:52;;;;;;;11.20;4.32;;;8.90;99.90;;;;;;10470827;28;20024;-82
2022/05/28 23:35:52;;;;;;;7.10;4.93;;;9.00;99.90;;;;;;10489165;28;20063;-82
2022/05/28 23:40:53;;;;;;;12.30;4.47;;;9.00;99.90;;;;;;10489632;28;20132;-82
2022/05/28 23:45:56;;;;;;;8.67;4.00;;;8.90;99.90;;;;;;10489251;28;20801;-82
2022/05/28 23:50:58;;;;;;;7.17;3.57;;;8.90;99.90;;;;;;10489310;28;20383;-82
2022/05/28 23:56:00;;;;;;;7.53;3.63;;;8.90;99.90;;;;;;10488382;28;20029;-82
